Main page
METAR-TAF:

METAR-TAF

Airports :

Quonset State Airport

North Kingstown, Rhode Island, United States

latitude: 41-36N, longitude: 071-25W, elevation: 20 ft

Current weather observation

The report was made 38 minutes ago, at 13:50 UTC
Wind 6 mph from the North/Northeast
Temperature 36°F
Humidity 64%
Pressure 30.40 in. Hg
Visibility: 10 miles
Few clouds at a height of 25000 ft

METAR: KOQU 241350Z 03005KT 10SM FEW250 02/M04 A3040

Time: 09:28 (14:28 UTC)


TAF: missing

Weather observations and forecasts of more than 4000 airports (METAR and TAF reports).

The available stations are represented by yellow and red dots on the map.

Hover mouse over dot to see the name of the station.

Then click to see weather observations and forecasts.

To change the map : click on the green buttons with a black cross to zoom in, on the green button with a dash to zoom out, or on the green arrows for adjacent maps.


METAR-TAF: